Camerino, Italy

10:21 PM CET on December 10, 2016 (GMT +0100)
Apiro | | Change Station

Elev 1624 ft 43.34 °N, 13.13 °E | Updated 33 seconds ago

Clear
Clear
46.2 °F
Feels Like 46 °F
N
1.1
Wind Variable Wind from SE
Gusts 2.5 mph

Today
High -- | Low -- °F
--% Chance of Precip.
Yesterday
High -- | Low -- °F
Precip. -- in
Pressure 30.27 in
Visibility -9999.0 miles
Clouds
Windchill 46 °F
Dew Point 38 °F
Humidity 72%
Rainfall 0.00 in
Snow Depth Not available.
7:28 AM 4:32 PM
Waxing Gibbous, 86% visible
METAR LIVF 102055Z 21006KT CAVOK 07/04 Q1025 RMK SKC MON LIB VAL NIL VIS MIN 9999
Pressure 30.27 in
Visibility -9999.0 miles
Clouds
Windchill 46 °F
Dew Point 38 °F
Humidity 72%
Rainfall 0.00 in
Snow Depth Not available.
7:28 AM 4:32 PM
Waxing Gibbous, 86% visible
METAR LIVF 102055Z 21006KT CAVOK 07/04 Q1025 RMK SKC MON LIB VAL NIL VIS MIN 9999

10-Day Weather Forecast

×

Almanac

Astronomy

Dec. 10, 2016 Rise Set
Actual Time
Civil Twilight
Nautical Twilight
Astronomical Twilight
Moon
Length of Visible Light
Length of Day
Tomorrow will be .
, % of the Moon is Illuminated

Today's Extremes

Country Highs Country Lows

Community

WunderPhotos

Upload Photos

1,956,664 photos uploaded!

WunderBlog® & News

Nearby

Air Quality

  Air Quality AQ Index Pollutant
Not available.

Snow Depth

Station Depth Elevation

Earthquake Activity

City Distance Mag. Time & Date
Minimum magnitude displayed is 2.5.

Coastal Water Temperatures

Place Temperature

Stations

Nearby Weather Stations

Station Location Temp. Windchill Dew Point Humidity Wind Precip. Elev Updated Type